Data for 05/25/2010

Time Sea-Level Adjusted Pressure Absolute Pressure Temperature Relative Humidity Dew Point   
(mb) (inHg) (mb) (inHg) (C) (F) (%) (C) (F)
00:05 1015 29.97 844 24.92 3.7 38.7 95 2.9 37.3
00:10 1015 29.97 844 24.92 3.7 38.7 95 3 37.4
00:15 1015 29.97 844 24.92 3.7 38.6 95 3 37.3
00:20 1015 29.97 844 24.92 3.7 38.6 95 3 37.4
00:25 1015 29.97 844 24.92 3.7 38.7 95 3 37.4
00:30 1015 29.97 844 24.92 3.7 38.7 95 3 37.4
00:35 1015 29.97 844 24.92 3.7 38.6 95 3 37.3
00:40 1015 29.97 844 24.92 3.5 38.3 95 2.8 37.1
00:45 1015 29.97 844 24.92 3.4 38.1 95 2.7 36.9
00:50 1015 29.97 844 24.92 3.3 38 95 2.6 36.6
00:55 1015 29.97 844 24.92 3.2 37.7 95 2.5 36.5
01:00 1015 29.97 844 24.92 3.2 37.8 96 2.6 36.6
01:05 1015 29.97 844 24.92 3.2 37.7 96 2.6 36.6
01:10 1015 29.97 844 24.92 3.2 37.8 95 2.6 36.6
01:15 1015 29.97 844 24.92 3.1 37.6 95 2.4 36.3
01:20 1015 29.97 844 24.92 2.9 37.3 96 2.3 36.2
01:25 1015 29.97 844 24.92 2.9 37.3 96 2.3 36.2
01:30 1015 29.97 844 24.92 2.9 37.2 96 2.2 36
01:35 1015 29.97 844 24.92 2.9 37.2 95 2.1 35.9
01:40 1015 29.97 845 24.95 2.7 36.8 94 1.9 35.3
01:45 1015 29.97 845 24.95 2.7 36.9 95 2 35.5
01:50 1015 29.97 845 24.95 2.8 37 94 2 35.5
01:55 1015 29.97 845 24.95 2.7 36.8 95 2 35.5
02:00 1015 29.97 845 24.95 2.7 36.9 95 2 35.6
02:05 1015 29.97 845 24.95 2.5 36.6 95 1.8 35.2
02:10 1015 29.97 845 24.95 2.5 36.6 95 1.8 35.3
02:15 1015 29.97 845 24.95 2.4 36.4 95 1.7 35.1
02:20 1016 30 845 24.95 2.4 36.4 96 1.8 35.2
02:25 1015 29.97 845 24.95 2.5 36.6 96 1.9 35.4
02:30 1015 29.97 845 24.95 2.7 36.8 96 2 35.6
02:35 1016 30 845 24.95 2.7 36.8 95 2 35.6
02:40 1016 30 845 24.95 2.7 36.9 95 2 35.7
02:45 1016 30 845 24.95 2.8 37 95 2.1 35.7
02:50 1016 30 845 24.95 2.8 37.1 95 2.1 35.9
02:55 1016 30 845 24.95 2.9 37.2 95 2.2 35.9
03:00 1016 30 845 24.95 2.9 37.2 95 2.1 35.8
03:05 1016 30 845 24.95 2.9 37.2 95 2.2 35.9
03:10 1016 30 845 24.95 2.9 37.3 95 2.2 36
03:15 1016 30 845 24.95 3 37.3 95 2.2 36
03:20 1016 30 845 24.95 2.9 37.3 95 2.2 36
03:25 1016 30 845 24.95 2.9 37.2 95 2.2 35.9
03:30 1016 30 845 24.95 2.9 37.3 95 2.2 36
03:35 1016 30 845 24.95 3 37.4 96 2.3 36.2
03:40 1016 30 845 24.95 3 37.4 95 2.3 36.1
03:45 1016 30 845 24.95 3 37.5 95 2.4 36.2
03:50 1016 30 845 24.95 3.1 37.5 95 2.3 36.2
03:55 1016 30 845 24.95 3.1 37.5 95 2.4 36.2
04:00 1016 30 845 24.95 3.1 37.6 95 2.4 36.3
04:05 1016 30 845 24.95 3 37.4 95 2.3 36.2
04:10 1016 30 845 24.95 3.1 37.5 96 2.4 36.3
04:15 1016 30 845 24.95 3.1 37.7 94 2.3 36.2
04:20 1016 30 845 24.95 3.3 37.9 93 2.2 36
04:25 1016 30 845 24.95 3.4 38.1 92 2.3 36.1
04:30 1016 30 845 24.95 3.5 38.3 92 2.3 36.1
04:35 1016 30 845 24.95 3.6 38.4 90 2.1 35.8
04:40 1016 30 845 24.95 3.6 38.5 90 2.1 35.8
04:45 1016 30 845 24.95 3.6 38.5 90 2.1 35.9
04:50 1016 30 845 24.95 3.5 38.4 90 2 35.6
04:55 1016 30 845 24.95 3.4 38.2 90 1.9 35.4
05:00 1016 30 845 24.95 3.4 38 90 1.9 35.5
05:05 1016 30 845 24.95 3.4 38.1 90 1.9 35.4
05:10 1016 30 845 24.95 3.5 38.2 90 2 35.6
05:15 1016 30 845 24.95 3.6 38.5 90 2.1 35.7
05:20 1016 30 845 24.95 3.7 38.6 91 2.3 36.1
05:25 1016 30 845 24.95 3.7 38.7 90 2.3 36.1
05:30 1016 30 845 24.95 3.8 38.8 89 2.1 35.8
05:35 1016 30 845 24.95 3.9 38.9 88 2 35.7
05:40 1016 30 845 24.95 4 39.1 89 2.3 36.2
05:45 1016 30 846 24.98 4 39.1 90 2.5 36.5
05:50 1016 30 846 24.98 4 39.2 90 2.5 36.6
05:55 1016 30 846 24.98 4 39.2 91 2.7 36.8
06:00 1016 30 846 24.98 3.9 39 92 2.7 36.9
06:05 1016 30 846 24.98 3.8 38.8 93 2.7 36.8
06:10 1017 30.03 846 24.98 3.6 38.5 93 2.7 36.8
06:15 1017 30.03 846 24.98 3.5 38.3 94 2.6 36.6
06:20 1017 30.03 846 24.98 3.4 38.2 95 2.6 36.8
06:25 1017 30.03 846 24.98 3.5 38.3 95 2.7 36.8
06:30 1017 30.03 846 24.98 3.5 38.3 95 2.7 36.9
06:35 1017 30.03 846 24.98 3.6 38.4 94 2.7 36.9
06:40 1017 30.03 846 24.98 3.5 38.3 95 2.8 37
06:45 1017 30.03 846 24.98 3.6 38.5 95 2.9 37.2
06:50 1017 30.03 846 24.98 3.6 38.5 94 2.8 37.1
06:55 1017 30.03 846 24.98 3.5 38.3 94 2.7 36.8
07:00 1017 30.03 846 24.98 3.5 38.3 95 2.7 36.9
07:05 1017 30.03 846 24.98 3.6 38.5 95 2.8 37.1
07:10 1017 30.03 846 24.98 3.6 38.4 95 2.8 37.1
07:15 1017 30.03 847 25.01 3.5 38.4 95 2.8 37
07:20 1017 30.03 847 25.01 3.5 38.3 95 2.8 37.1
07:25 1017 30.03 847 25.01 3.6 38.4 96 2.9 37.3
07:30 1018 30.06 847 25.01 3.6 38.4 95 2.9 37.2
07:35 1018 30.06 847 25.01 3.5 38.4 95 2.7 36.9
07:40 1018 30.06 847 25.01 3.4 38 94 2.5 36.5
07:45 1018 30.06 847 25.01 3.5 38.3 94 2.7 36.8
07:50 1018 30.06 847 25.01 3.6 38.5 94 2.8 37
07:55 1018 30.06 847 25.01 3.7 38.7 94 2.9 37.1
08:00 1018 30.06 847 25.01 3.7 38.7 92 2.5 36.4
08:05 1018 30.06 847 25.01 3.6 38.5 93 2.5 36.6
08:10 1018 30.06 847 25.01 3.7 38.7 92 2.5 36.5
08:15 1018 30.06 847 25.01 3.9 39 92 2.6 36.7
08:20 1018 30.06 847 25.01 3.9 39 92 2.8 37
08:25 1018 30.06 847 25.01 3.9 39.1 92 2.7 36.8
08:30 1018 30.06 847 25.01 4 39.1 92 2.7 36.9
08:35 1018 30.06 847 25.01 4 39.3 91 2.7 36.8
08:40 1018 30.06 847 25.01 3.9 38.9 91 2.5 36.6
08:45 1018 30.06 847 25.01 3.8 38.9 92 2.7 36.9
08:50 1018 30.06 847 25.01 4.1 39.4 91 2.8 37
08:55 1018 30.06 848 25.04 4.3 39.7 90 2.8 37.1
09:00 1018 30.06 848 25.04 4.7 40.4 90 3.1 37.6
09:05 1019 30.09 848 25.04 4.8 40.6 89 3.1 37.6
09:10 1019 30.09 848 25.04 4.9 40.9 86 2.8 37
09:15 1019 30.09 848 25.04 4.8 40.7 86 2.7 36.9
09:20 1019 30.09 848 25.04 4.8 40.6 86 2.6 36.7
09:25 1019 30.09 848 25.04 5 40.9 84 2.4 36.4
09:30 1019 30.09 848 25.04 4.8 40.7 84 2.3 36.2
09:35 1019 30.09 848 25.04 4.9 40.9 86 2.8 37.1
09:40 1019 30.09 848 25.04 5.7 42.3 85 3.3 38
09:45 1019 30.09 848 25.04 6.1 42.9 83 3.4 38.2
09:50 1019 30.09 848 25.04 6.1 42.9 83 3.4 38.2
09:55 1019 30.09 848 25.04 6.2 43.1 83 3.4 38.2
10:00 1019 30.09 848 25.04 6.3 43.3 78 2.7 36.8
10:05 1019 30.09 848 25.04 6.1 43 83 3.4 38.1
10:10 1019 30.09 848 25.04 6.2 43.1 78 2.5 36.6
10:15 1019 30.09 848 25.04 5.9 42.6 77 2.2 35.9
10:20 1019 30.09 848 25.04 6.3 43.4 75 2.3 36.1
10:25 1019 30.09 848 25.04 7.1 44.7 72 2.3 36.2
10:30 1019 30.09 848 25.04 7.8 46.1 71 2.9 37.2
10:35 1019 30.09 848 25.04 7.8 46 69 2.5 36.5
10:40 1019 30.09 848 25.04 8.2 46.8 64 1.9 35.5
10:45 1019 30.09 848 25.04 8.2 46.8 62 1.5 34.7
10:50 1019 30.09 848 25.04 9.7 49.4 61 2.4 36.4
10:55 1019 30.09 848 25.04 10.2 50.3 56 1.9 35.4
11:00 1019 30.09 848 25.04 9 48.1 60 1.6 34.8
11:05 1019 30.09 848 25.04 9.9 49.8 54 1.1 33.9
11:10 1019 30.09 848 25.04 8.8 47.9 61 1.7 35
11:15 1019 30.09 848 25.04 9.7 49.4 54 0.8 33.4
11:20 1019 30.09 848 25.04 9.5 49.1 59 1.8 35.3
11:25 1019 30.09 848 25.04 10.1 50.1 52 0.7 33.3
11:30 1019 30.09 848 25.04 11.1 51.9 53 1.9 35.5
11:35 1019 30.09 848 25.04 11.5 52.7 49 1.3 34.4
11:40 1019 30.09 848 25.04 11.5 52.6 50 1.4 34.5
11:45 1019 30.09 848 25.04 10.5 50.8 52 1.1 34
11:50 1019 30.09 848 25.04 11.5 52.8 47 0.7 33.2
11:55 1019 30.09 848 25.04 11.8 53.2 47 0.9 33.7
12:00 1019 30.09 848 25.04 11.9 53.5 47 1 33.8
12:05 1019 30.09 848 25.04 12.7 54.8 43 0.6 33.1
12:10 1019 30.09 848 25.04 13.2 55.7 46 1.7 35.1
12:15 1019 30.09 848 25.04 12.5 54.4 45 0.9 33.6
12:20 1019 30.09 848 25.04 11.8 53.2 45 0.3 32.6
12:25 1019 30.09 848 25.04 12.3 54.1 43 0.1 32.1
12:30 1019 30.09 848 25.04 12.2 54 47 1.4 34.5
12:35 1019 30.09 848 25.04 11.5 52.7 44 -0.3 31.5
12:40 1019 30.09 848 25.04 12.1 53.8 45 0.5 33
12:45 1019 30.09 848 25.04 12.9 55.1 46 1.6 34.9
12:50 1019 30.09 848 25.04 12 53.6 49 1.8 35.3
12:55 1018 30.06 848 25.04 12.3 54.1 46 1.2 34.1
13:00 1018 30.06 848 25.04 13 55.4 42 0.5 32.9
13:05 1018 30.06 848 25.04 13.1 55.5 44 1.1 34
13:10 1018 30.06 848 25.04 12.6 54.8 42 0 32.1
13:15 1018 30.06 848 25.04 13.3 56 43 1.1 34
13:20 1018 30.06 848 25.04 12.9 55.2 42 0.4 32.7
13:25 1018 30.06 847 25.01 13.2 55.7 42 0.8 33.4
13:30 1018 30.06 847 25.01 13.1 55.5 42 0.5 33
13:35 1018 30.06 847 25.01 13.1 55.6 40 0.1 32.1
13:40 1018 30.06 848 25.04 14 57.2 38 -0 32
13:45 1018 30.06 848 25.04 14.6 58.4 36 -0 32
13:50 1018 30.06 847 25.01 15 59 36 0.3 32.6
13:55 1018 30.06 847 25.01 14.5 58 38 0.4 32.7
14:00 1018 30.06 847 25.01 15.1 59.2 37 0.7 33.3
14:05 1018 30.06 847 25.01 15 59 36 0.2 32.4
14:10 1018 30.06 847 25.01 15.9 60.6 35 0.4 32.7
14:15 1018 30.06 847 25.01 16.2 61.1 32 -0.3 31.5
14:20 1018 30.06 847 25.01 15.7 60.3 36 0.8 33.4
14:25 1018 30.06 847 25.01 15.1 59.2 35 -0.1 31.8
14:30 1018 30.06 847 25.01 14.5 58 38 0.2 32.4
14:35 1018 30.06 847 25.01 13.4 56.2 39 -0.2 31.6
14:40 1018 30.06 847 25.01 14.1 57.3 36 -0.8 30.6
14:45 1018 30.06 847 25.01 14.6 58.3 36 -0.1 31.9
14:50 1018 30.06 847 25.01 14.6 58.4 35 -0.7 30.8
14:55 1018 30.06 847 25.01 14.3 57.7 36 -0.5 31.1
15:00 1018 30.06 847 25.01 15.1 59.1 33 -1.2 29.9
15:05 1018 30.06 847 25.01 15.2 59.4 33 -1 30.2
15:10 1018 30.06 847 25.01 16.3 61.4 32 -0.3 31.5
15:15 1018 30.06 847 25.01 14.6 58.2 35 -0.7 30.8
15:20 1018 30.06 847 25.01 14.2 57.6 33 -1.7 28.9
15:25 1018 30.06 847 25.01 14.5 58.2 33 -1.5 29.4
15:30 1018 30.06 847 25.01 13.5 56.4 34 -2 28.4
15:35 1018 30.06 847 25.01 13.2 55.7 35 -1.9 28.6
15:40 1018 30.06 847 25.01 13.8 56.8 34 -1.6 29.1
15:45 1018 30.06 847 25.01 13.5 56.2 33 -2.3 27.8
15:50 1018 30.06 847 25.01 13.6 56.4 34 -1.9 28.6
15:55 1018 30.06 847 25.01 13.6 56.4 39 0 32
16:00 1018 30.06 847 25.01 13.1 55.6 39 -0.6 31
16:05 1018 30.06 847 25.01 12.9 55.1 40 -0.3 31.4
16:10 1018 30.06 847 25.01 13.3 55.9 38 -0.6 30.8
16:15 1018 30.06 847 25.01 13.7 56.6 37 -0.5 31
16:20 1018 30.06 847 25.01 13.8 56.8 36 -1.2 29.9
16:25 1018 30.06 847 25.01 14.3 57.7 36 -0.3 31.4
16:30 1018 30.06 847 25.01 14.5 58.1 35 -0.6 30.8
16:35 1018 30.06 847 25.01 13.8 56.9 34 -1.8 28.8
16:40 1018 30.06 847 25.01 13.7 56.6 35 -1.4 29.5
16:45 1018 30.06 847 25.01 13.5 56.3 36 -1.1 30.1
16:50 1018 30.06 847 25.01 13.1 55.6 37 -1.3 29.7
16:55 1018 30.06 847 25.01 13.4 56 37 -1.1 30
17:00 1018 30.06 847 25.01 13.8 56.8 33 -2.3 27.9
17:05 1018 30.06 847 25.01 13.7 56.6 34 -2 28.4
17:10 1018 30.06 847 25.01 13.9 57 32 -2.6 27.4
17:15 1018 30.06 847 25.01 13.6 56.4 31 -3.2 26.2
17:20 1018 30.06 847 25.01 13.3 56 30 -3.8 25.2
17:25 1018 30.06 847 25.01 13.6 56.4 30 -3.8 25.2
17:30 1018 30.06 847 25.01 13.7 56.7 29 -4 24.8
17:35 1018 30.06 847 25.01 14 57.1 28 -4 24.9
17:40 1018 30.06 847 25.01 13.7 56.6 30 -3.6 25.5
17:45 1018 30.06 847 25.01 13.8 56.8 30 -3.6 25.4
17:50 1018 30.06 847 25.01 14.1 57.3 28 -4.1 24.6
17:55 1018 30.06 847 25.01 13.7 56.6 30 -3.5 25.7
18:00 1018 30.06 847 25.01 13.8 56.9 29 -4 24.9
18:05 1018 30.06 847 25.01 14.6 58.3 28 -3.8 25.1
18:10 1018 30.06 847 25.01 14.8 58.6 28 -3.3 26.1
18:15 1018 30.06 847 25.01 15.3 59.6 27 -3.3 26
18:20 1018 30.06 847 25.01 15.2 59.4 28 -3.3 26.1
18:25 1018 30.06 847 25.01 15.6 60 27 -3.3 26.1
18:30 1018 30.06 847 25.01 14.8 58.7 27 -4 24.8
18:35 1018 30.06 847 25.01 14.1 57.4 26 -5.2 22.6
18:40 1018 30.06 847 25.01 14.2 57.6 26 -4.7 23.5
18:45 1018 30.06 847 25.01 14.1 57.4 26 -5.2 22.6
18:50 1018 30.06 847 25.01 14 57.2 26 -5.2 22.6
18:55 1018 30.06 847 25.01 13.8 56.9 27 -4.9 23.2
19:00 1018 30.06 847 25.01 13.6 56.4 27 -4.8 23.3
19:05 1018 30.06 847 25.01 13.7 56.6 27 -4.8 23.4
19:10 1018 30.06 847 25.01 13.6 56.5 26 -5.7 21.8
19:15 1018 30.06 847 25.01 13.4 56.1 26 -5.5 22.1
19:20 1018 30.06 847 25.01 13.2 55.8 26 -5.9 21.3
19:25 1018 30.06 847 25.01 13.3 55.9 28 -5 22.9
19:30 1018 30.06 847 25.01 13.3 55.9 28 -4.7 23.6
19:35 1018 30.06 847 25.01 13.3 55.9 28 -4.7 23.6
19:40 1018 30.06 847 25.01 13.2 55.8 29 -4.6 23.7
19:45 1018 30.06 847 25.01 13.1 55.5 30 -3.9 24.9
19:50 1018 30.06 847 25.01 12.9 55.2 30 -4 24.8
19:55 1018 30.06 847 25.01 12.9 55.1 30 -4.2 24.5
20:00 1018 30.06 847 25.01 12.7 54.8 30 -4.2 24.5
20:05 1018 30.06 847 25.01 12.5 54.5 31 -4 24.9
20:10 1018 30.06 847 25.01 12.4 54.3 33 -3.4 25.8
20:15 1018 30.06 847 25.01 12.3 54.1 33 -3.6 25.5
20:20 1018 30.06 847 25.01 12.2 53.9 33 -3.7 25.4
20:25 1018 30.06 847 25.01 12.1 53.8 34 -3.4 25.8
20:30 1018 30.06 847 25.01 12 53.5 34 -3.2 26.2
20:35 1018 30.06 847 25.01 11.9 53.4 36 -2.7 27.1
20:40 1018 30.06 847 25.01 11.8 53.2 36 -2.8 26.9
20:45 1018 30.06 847 25.01 11.6 52.8 37 -2.7 27.1
20:50 1018 30.06 847 25.01 11.3 52.4 38 -2.6 27.4
20:55 1018 30.06 847 25.01 11.1 52 38 -2.5 27.6
21:00 1018 30.06 847 25.01 10.9 51.6 40 -2 28.3
21:05 1018 30.06 847 25.01 10.6 51 41 -2 28.4
21:10 1018 30.06 847 25.01 10.2 50.4 43 -1.9 28.7
21:15 1018 30.06 847 25.01 10 49.9 44 -1.7 29
21:20 1018 30.06 847 25.01 9.7 49.5 46 -1.3 29.7
21:25 1018 30.06 847 25.01 9.4 48.8 47 -1.3 29.6
21:30 1018 30.06 847 25.01 9.2 48.5 49 -0.8 30.5
21:35 1018 30.06 847 25.01 8.9 48 51 -0.6 30.9
21:40 1018 30.06 848 25.04 8.7 47.7 51 -0.8 30.6
21:45 1018 30.06 848 25.04 8.6 47.5 52 -0.6 30.9
21:50 1018 30.06 848 25.04 8.3 46.9 56 -0 31.9
21:55 1018 30.06 848 25.04 7.7 45.9 55 -0.8 30.5
22:00 1019 30.09 848 25.04 7.8 46 54 -1 30.3
22:05 1019 30.09 848 25.04 7.8 46 55 -0.7 30.7
22:10 1019 30.09 848 25.04 7.8 46 55 -0.8 30.6
22:15 1019 30.09 848 25.04 7.8 46 55 -0.6 30.9
22:20 1019 30.09 848 25.04 7.9 46.1 54 -0.9 30.4
22:25 1019 30.09 848 25.04 7.9 46.2 54 -0.8 30.5
22:30 1019 30.09 848 25.04 7.9 46.3 54 -0.7 30.7
22:35 1019 30.09 848 25.04 7.8 46.1 55 -0.6 30.9
22:40 1019 30.09 848 25.04 7.9 46.2 54 -0.9 30.3
22:45 1019 30.09 848 25.04 8 46.3 54 -0.8 30.6
22:50 1019 30.09 848 25.04 7.8 46.1 56 -0.4 31.3
22:55 1019 30.09 848 25.04 7.6 45.7 56 -0.5 31.1
23:00 1019 30.09 848 25.04 7.4 45.4 58 -0.4 31.3
23:05 1019 30.09 848 25.04 7.3 45.1 58 -0.5 31.1
23:10 1019 30.09 848 25.04 7.1 44.8 59 -0.3 31.4
23:15 1019 30.09 848 25.04 6.9 44.4 60 -0.2 31.6
23:20 1018 30.06 848 25.04 6.8 44.2 60 -0.5 31.1
23:25 1018 30.06 848 25.04 6.8 44.3 59 -0.6 30.9
23:30 1019 30.09 848 25.04 6.8 44.2 62 -0.1 31.9
23:35 1019 30.09 848 25.04 6.5 43.6 60 -0.6 30.9
23:40 1018 30.06 848 25.04 6.7 44 59 -0.8 30.5
23:45 1018 30.06 848 25.04 6.8 44.2 59 -0.7 30.8
23:50 1018 30.06 848 25.04 6.8 44.2 59 -0.8 30.6
23:55 1018 30.06 848 25.04 6.6 43.9 60 -0.6 30.9